sensor_id;sensor_type;location;lat;lon;timestamp;P1;durP1;ratioP1;P2;durP2;ratioP2
72109;SDS011;59983;52.010;5.420;2022-12-18T00:02:12;53.05;;;30.80;;
72109;SDS011;59983;52.010;5.420;2022-12-18T00:04:39;55.47;;;30.15;;
72109;SDS011;59983;52.010;5.420;2022-12-18T00:07:05;55.40;;;31.67;;
72109;SDS011;59983;52.010;5.420;2022-12-18T00:09:32;54.77;;;29.90;;
72109;SDS011;59983;52.010;5.420;2022-12-18T00:12:05;58.83;;;31.85;;
72109;SDS011;59983;52.010;5.420;2022-12-18T00:14:41;60.97;;;31.35;;
72109;SDS011;59983;52.010;5.420;2022-12-18T00:17:08;60.88;;;32.72;;
72109;SDS011;59983;52.010;5.420;2022-12-18T00:19:34;52.40;;;30.77;;
72109;SDS011;59983;52.010;5.420;2022-12-18T00:22:01;47.23;;;27.63;;
72109;SDS011;59983;52.010;5.420;2022-12-18T00:24:27;53.80;;;29.05;;
72109;SDS011;59983;52.010;5.420;2022-12-18T00:26:53;61.20;;;30.70;;
72109;SDS011;59983;52.010;5.420;2022-12-18T00:29:20;60.33;;;30.17;;
72109;SDS011;59983;52.010;5.420;2022-12-18T00:31:46;48.75;;;28.05;;
72109;SDS011;59983;52.010;5.420;2022-12-18T00:34:13;50.80;;;29.77;;
72109;SDS011;59983;52.010;5.420;2022-12-18T00:36:40;53.58;;;29.98;;
72109;SDS011;59983;52.010;5.420;2022-12-18T00:39:07;51.47;;;29.55;;
72109;SDS011;59983;52.010;5.420;2022-12-18T00:41:36;48.20;;;29.95;;
72109;SDS011;59983;52.010;5.420;2022-12-18T00:44:21;50.08;;;30.27;;
72109;SDS011;59983;52.010;5.420;2022-12-18T00:46:47;40.47;;;25.13;;
72109;SDS011;59983;52.010;5.420;2022-12-18T00:49:15;42.70;;;28.80;;
72109;SDS011;59983;52.010;5.420;2022-12-18T00:51:44;50.15;;;28.67;;
72109;SDS011;59983;52.010;5.420;2022-12-18T00:54:11;41.83;;;26.40;;
72109;SDS011;59983;52.010;5.420;2022-12-18T00:56:38;52.25;;;28.75;;
72109;SDS011;59983;52.010;5.420;2022-12-18T00:59:14;49.77;;;27.67;;
72109;SDS011;59983;52.010;5.420;2022-12-18T01:01:41;47.70;;;29.83;;
72109;SDS011;59983;52.010;5.420;2022-12-18T01:04:07;48.63;;;30.02;;
72109;SDS011;59983;52.010;5.420;2022-12-18T01:06:34;49.97;;;29.15;;
72109;SDS011;59983;52.010;5.420;2022-12-18T01:09:01;55.22;;;31.13;;
72109;SDS011;59983;52.010;5.420;2022-12-18T01:11:28;53.83;;;29.77;;
72109;SDS011;59983;52.010;5.420;2022-12-18T01:13:54;50.90;;;26.83;;
72109;SDS011;59983;52.010;5.420;2022-12-18T01:16:21;49.85;;;31.13;;
72109;SDS011;59983;52.010;5.420;2022-12-18T01:18:51;58.63;;;29.98;;
72109;SDS011;59983;52.010;5.420;2022-12-18T01:21:18;55.13;;;30.63;;
72109;SDS011;59983;52.010;5.420;2022-12-18T01:23:45;48.50;;;27.47;;
72109;SDS011;59983;52.010;5.420;2022-12-18T01:26:13;51.22;;;27.63;;
72109;SDS011;59983;52.010;5.420;2022-12-18T01:28:42;47.50;;;29.70;;
72109;SDS011;59983;52.010;5.420;2022-12-18T01:31:14;48.50;;;29.05;;
72109;SDS011;59983;52.010;5.420;2022-12-18T01:33:40;53.83;;;30.58;;
72109;SDS011;59983;52.010;5.420;2022-12-18T01:36:07;52.37;;;28.00;;
72109;SDS011;59983;52.010;5.420;2022-12-18T01:38:35;53.80;;;28.80;;
72109;SDS011;59983;52.010;5.420;2022-12-18T01:41:01;41.95;;;27.90;;
72109;SDS011;59983;52.010;5.420;2022-12-18T01:46:27;46.90;;;28.77;;
72109;SDS011;59983;52.010;5.420;2022-12-18T01:48:55;51.97;;;28.10;;
72109;SDS011;59983;52.010;5.420;2022-12-18T01:51:23;55.20;;;27.15;;
72109;SDS011;59983;52.010;5.420;2022-12-18T01:53:52;51.28;;;29.98;;
72109;SDS011;59983;52.010;5.420;2022-12-18T01:56:19;52.95;;;30.17;;
72109;SDS011;59983;52.010;5.420;2022-12-18T02:01:20;47.90;;;27.10;;
72109;SDS011;59983;52.010;5.420;2022-12-18T02:03:49;46.40;;;27.27;;
72109;SDS011;59983;52.010;5.420;2022-12-18T02:06:21;64.57;;;28.50;;
72109;SDS011;59983;52.010;5.420;2022-12-18T02:09:02;42.33;;;27.00;;
72109;SDS011;59983;52.010;5.420;2022-12-18T02:12:10;41.92;;;26.25;;
72109;SDS011;59983;52.010;5.420;2022-12-18T02:17:33;47.25;;;26.63;;
72109;SDS011;59983;52.010;5.420;2022-12-18T02:28:48;42.80;;;27.30;;
72109;SDS011;59983;52.010;5.420;2022-12-18T02:31:21;41.40;;;27.38;;
72109;SDS011;59983;52.010;5.420;2022-12-18T02:33:53;44.97;;;28.52;;
72109;SDS011;59983;52.010;5.420;2022-12-18T02:36:22;41.75;;;26.88;;
72109;SDS011;59983;52.010;5.420;2022-12-18T02:38:51;48.67;;;28.45;;
72109;SDS011;59983;52.010;5.420;2022-12-18T02:41:19;49.10;;;30.87;;
72109;SDS011;59983;52.010;5.420;2022-12-18T02:43:48;45.78;;;27.60;;
72109;SDS011;59983;52.010;5.420;2022-12-18T02:46:32;41.88;;;29.38;;
72109;SDS011;59983;52.010;5.420;2022-12-18T02:49:19;48.35;;;26.08;;
72109;SDS011;59983;52.010;5.420;2022-12-18T02:51:52;46.60;;;27.60;;
72109;SDS011;59983;52.010;5.420;2022-12-18T02:54:34;41.70;;;27.53;;
72109;SDS011;59983;52.010;5.420;2022-12-18T02:57:34;41.67;;;27.80;;
72109;SDS011;59983;52.010;5.420;2022-12-18T03:00:03;40.55;;;27.52;;
72109;SDS011;59983;52.010;5.420;2022-12-18T03:02:47;40.78;;;27.95;;
72109;SDS011;59983;52.010;5.420;2022-12-18T03:05:36;34.33;;;24.80;;
72109;SDS011;59983;52.010;5.420;2022-12-18T03:08:07;42.50;;;27.70;;
72109;SDS011;59983;52.010;5.420;2022-12-18T03:10:41;36.28;;;26.60;;
72109;SDS011;59983;52.010;5.420;2022-12-18T03:13:13;42.38;;;29.95;;
72109;SDS011;59983;52.010;5.420;2022-12-18T03:15:49;41.53;;;26.92;;
72109;SDS011;59983;52.010;5.420;2022-12-18T03:19:06;36.85;;;27.40;;
72109;SDS011;59983;52.010;5.420;2022-12-18T03:21:11;36.73;;;25.40;;
72109;SDS011;59983;52.010;5.420;2022-12-18T03:23:47;36.03;;;24.20;;
72109;SDS011;59983;52.010;5.420;2022-12-18T03:26:16;30.70;;;24.20;;
72109;SDS011;59983;52.010;5.420;2022-12-18T03:28:54;27.75;;;24.73;;
72109;SDS011;59983;52.010;5.420;2022-12-18T03:31:25;34.08;;;25.10;;
72109;SDS011;59983;52.010;5.420;2022-12-18T03:34:01;40.83;;;25.33;;
72109;SDS011;59983;52.010;5.420;2022-12-18T03:36:31;31.17;;;24.00;;
72109;SDS011;59983;52.010;5.420;2022-12-18T03:38:58;33.85;;;25.52;;
72109;SDS011;59983;52.010;5.420;2022-12-18T03:41:43;26.70;;;22.65;;
72109;SDS011;59983;52.010;5.420;2022-12-18T03:44:29;28.20;;;25.02;;
72109;SDS011;59983;52.010;5.420;2022-12-18T03:55:06;27.75;;;24.13;;
72109;SDS011;59983;52.010;5.420;2022-12-18T03:57:35;29.50;;;22.95;;
72109;SDS011;59983;52.010;5.420;2022-12-18T04:00:12;29.07;;;22.00;;
72109;SDS011;59983;52.010;5.420;2022-12-18T04:02:43;28.77;;;23.05;;
72109;SDS011;59983;52.010;5.420;2022-12-18T04:05:14;29.67;;;24.10;;
72109;SDS011;59983;52.010;5.420;2022-12-18T04:07:41;26.33;;;22.58;;
72109;SDS011;59983;52.010;5.420;2022-12-18T04:10:11;26.00;;;22.80;;
72109;SDS011;59983;52.010;5.420;2022-12-18T04:12:38;26.03;;;21.50;;
72109;SDS011;59983;52.010;5.420;2022-12-18T04:15:05;24.25;;;20.70;;
72109;SDS011;59983;52.010;5.420;2022-12-18T04:17:32;28.30;;;23.58;;
72109;SDS011;59983;52.010;5.420;2022-12-18T04:19:58;24.52;;;21.85;;
72109;SDS011;59983;52.010;5.420;2022-12-18T04:22:25;29.13;;;23.52;;
72109;SDS011;59983;52.010;5.420;2022-12-18T04:24:51;28.70;;;23.20;;
72109;SDS011;59983;52.010;5.420;2022-12-18T04:27:18;25.42;;;22.90;;
72109;SDS011;59983;52.010;5.420;2022-12-18T04:29:44;30.15;;;23.30;;
72109;SDS011;59983;52.010;5.420;2022-12-18T04:32:11;26.52;;;21.13;;
72109;SDS011;59983;52.010;5.420;2022-12-18T04:34:37;25.10;;;22.42;;
72109;SDS011;59983;52.010;5.420;2022-12-18T04:37:04;25.83;;;23.17;;
72109;SDS011;59983;52.010;5.420;2022-12-18T04:39:30;27.25;;;21.88;;
72109;SDS011;59983;52.010;5.420;2022-12-18T04:41:57;24.40;;;21.27;;
72109;SDS011;59983;52.010;5.420;2022-12-18T04:44:23;27.60;;;23.13;;
72109;SDS011;59983;52.010;5.420;2022-12-18T04:46:50;23.42;;;20.92;;
72109;SDS011;59983;52.010;5.420;2022-12-18T04:49:16;24.90;;;21.90;;
72109;SDS011;59983;52.010;5.420;2022-12-18T04:51:43;23.70;;;21.02;;
72109;SDS011;59983;52.010;5.420;2022-12-18T04:54:09;28.23;;;23.95;;
72109;SDS011;59983;52.010;5.420;2022-12-18T04:56:35;29.92;;;23.63;;
72109;SDS011;59983;52.010;5.420;2022-12-18T04:59:02;24.58;;;21.92;;
72109;SDS011;59983;52.010;5.420;2022-12-18T05:01:28;24.83;;;22.20;;
72109;SDS011;59983;52.010;5.420;2022-12-18T05:04:00;23.42;;;20.65;;
72109;SDS011;59983;52.010;5.420;2022-12-18T05:06:27;26.67;;;21.27;;
72109;SDS011;59983;52.010;5.420;2022-12-18T05:08:54;26.45;;;21.42;;
72109;SDS011;59983;52.010;5.420;2022-12-18T05:11:21;22.77;;;20.55;;
72109;SDS011;59983;52.010;5.420;2022-12-18T05:13:47;22.27;;;19.80;;
72109;SDS011;59983;52.010;5.420;2022-12-18T05:16:14;28.08;;;21.42;;
72109;SDS011;59983;52.010;5.420;2022-12-18T05:18:41;26.98;;;22.73;;
72109;SDS011;59983;52.010;5.420;2022-12-18T05:21:08;27.17;;;21.63;;
72109;SDS011;59983;52.010;5.420;2022-12-18T05:23:34;23.73;;;21.23;;
72109;SDS011;59983;52.010;5.420;2022-12-18T05:26:03;26.20;;;21.07;;
72109;SDS011;59983;52.010;5.420;2022-12-18T05:28:32;28.00;;;21.35;;
72109;SDS011;59983;52.010;5.420;2022-12-18T05:31:00;24.52;;;21.90;;
72109;SDS011;59983;52.010;5.420;2022-12-18T05:33:29;22.45;;;20.25;;
72109;SDS011;59983;52.010;5.420;2022-12-18T05:36:00;28.77;;;21.50;;
72109;SDS011;59983;52.010;5.420;2022-12-18T05:38:29;21.70;;;19.57;;
72109;SDS011;59983;52.010;5.420;2022-12-18T05:40:57;25.70;;;22.70;;
72109;SDS011;59983;52.010;5.420;2022-12-18T05:43:24;23.00;;;20.67;;
72109;SDS011;59983;52.010;5.420;2022-12-18T05:45:52;20.70;;;18.35;;
72109;SDS011;59983;52.010;5.420;2022-12-18T05:48:20;24.55;;;21.52;;
72109;SDS011;59983;52.010;5.420;2022-12-18T05:50:47;22.93;;;20.50;;
72109;SDS011;59983;52.010;5.420;2022-12-18T05:53:16;22.45;;;20.20;;
72109;SDS011;59983;52.010;5.420;2022-12-18T05:55:44;23.13;;;20.90;;
72109;SDS011;59983;52.010;5.420;2022-12-18T05:58:12;21.77;;;19.27;;
72109;SDS011;59983;52.010;5.420;2022-12-18T06:00:43;22.85;;;20.58;;
72109;SDS011;59983;52.010;5.420;2022-12-18T06:03:11;23.07;;;20.53;;
72109;SDS011;59983;52.010;5.420;2022-12-18T06:05:39;22.80;;;20.52;;
72109;SDS011;59983;52.010;5.420;2022-12-18T06:08:07;22.52;;;20.20;;
72109;SDS011;59983;52.010;5.420;2022-12-18T06:10:34;21.58;;;19.48;;
72109;SDS011;59983;52.010;5.420;2022-12-18T06:13:01;25.25;;;17.92;;
72109;SDS011;59983;52.010;5.420;2022-12-18T06:15:28;25.17;;;20.47;;
72109;SDS011;59983;52.010;5.420;2022-12-18T06:17:54;18.35;;;16.33;;
72109;SDS011;59983;52.010;5.420;2022-12-18T06:20:20;23.52;;;21.17;;
72109;SDS011;59983;52.010;5.420;2022-12-18T06:22:47;23.42;;;21.13;;
72109;SDS011;59983;52.010;5.420;2022-12-18T06:25:14;22.00;;;19.90;;
72109;SDS011;59983;52.010;5.420;2022-12-18T06:27:41;21.80;;;19.63;;
72109;SDS011;59983;52.010;5.420;2022-12-18T06:30:08;22.00;;;19.20;;
72109;SDS011;59983;52.010;5.420;2022-12-18T06:32:36;20.65;;;18.67;;
72109;SDS011;59983;52.010;5.420;2022-12-18T06:35:02;21.13;;;19.17;;
72109;SDS011;59983;52.010;5.420;2022-12-18T06:37:30;20.63;;;18.55;;
72109;SDS011;59983;52.010;5.420;2022-12-18T06:39:57;22.70;;;20.33;;
72109;SDS011;59983;52.010;5.420;2022-12-18T06:42:24;20.27;;;18.58;;
72109;SDS011;59983;52.010;5.420;2022-12-18T06:44:50;22.75;;;20.42;;
72109;SDS011;59983;52.010;5.420;2022-12-18T06:47:17;20.98;;;18.98;;
72109;SDS011;59983;52.010;5.420;2022-12-18T06:49:44;22.27;;;19.98;;
72109;SDS011;59983;52.010;5.420;2022-12-18T06:52:10;20.87;;;19.03;;
72109;SDS011;59983;52.010;5.420;2022-12-18T06:54:37;19.85;;;17.80;;
72109;SDS011;59983;52.010;5.420;2022-12-18T06:57:03;26.73;;;19.85;;
72109;SDS011;59983;52.010;5.420;2022-12-18T06:59:30;21.05;;;19.15;;
72109;SDS011;59983;52.010;5.420;2022-12-18T07:01:56;24.73;;;19.38;;
72109;SDS011;59983;52.010;5.420;2022-12-18T07:04:30;22.43;;;19.33;;
72109;SDS011;59983;52.010;5.420;2022-12-18T07:06:57;20.92;;;18.70;;
72109;SDS011;59983;52.010;5.420;2022-12-18T07:09:24;22.10;;;19.90;;
72109;SDS011;59983;52.010;5.420;2022-12-18T07:11:51;22.38;;;20.02;;
72109;SDS011;59983;52.010;5.420;2022-12-18T07:14:18;24.73;;;22.13;;
72109;SDS011;59983;52.010;5.420;2022-12-18T07:16:44;20.63;;;18.60;;
72109;SDS011;59983;52.010;5.420;2022-12-18T07:19:11;21.40;;;19.40;;
72109;SDS011;59983;52.010;5.420;2022-12-18T07:21:38;21.88;;;19.88;;
72109;SDS011;59983;52.010;5.420;2022-12-18T07:24:04;20.30;;;18.15;;
72109;SDS011;59983;52.010;5.420;2022-12-18T07:26:31;22.45;;;20.00;;
72109;SDS011;59983;52.010;5.420;2022-12-18T07:28:58;22.13;;;17.20;;
72109;SDS011;59983;52.010;5.420;2022-12-18T07:31:25;21.25;;;19.00;;
72109;SDS011;59983;52.010;5.420;2022-12-18T07:33:52;19.83;;;18.05;;
72109;SDS011;59983;52.010;5.420;2022-12-18T07:36:22;20.90;;;18.70;;
72109;SDS011;59983;52.010;5.420;2022-12-18T07:38:49;21.83;;;19.77;;
72109;SDS011;59983;52.010;5.420;2022-12-18T07:41:16;19.10;;;17.13;;
72109;SDS011;59983;52.010;5.420;2022-12-18T07:43:43;20.00;;;18.10;;
72109;SDS011;59983;52.010;5.420;2022-12-18T07:46:10;23.80;;;20.75;;
72109;SDS011;59983;52.010;5.420;2022-12-18T07:48:40;20.17;;;18.17;;
72109;SDS011;59983;52.010;5.420;2022-12-18T07:51:09;22.65;;;20.35;;
72109;SDS011;59983;52.010;5.420;2022-12-18T07:53:36;21.67;;;18.43;;
72109;SDS011;59983;52.010;5.420;2022-12-18T07:56:04;22.75;;;20.45;;
72109;SDS011;59983;52.010;5.420;2022-12-18T07:58:52;21.67;;;19.83;;
72109;SDS011;59983;52.010;5.420;2022-12-18T08:01:19;20.50;;;18.48;;
72109;SDS011;59983;52.010;5.420;2022-12-18T08:03:46;19.75;;;17.90;;
72109;SDS011;59983;52.010;5.420;2022-12-18T08:06:13;21.33;;;17.77;;
72109;SDS011;59983;52.010;5.420;2022-12-18T08:08:40;20.77;;;18.58;;
72109;SDS011;59983;52.010;5.420;2022-12-18T08:11:08;22.67;;;20.48;;
72109;SDS011;59983;52.010;5.420;2022-12-18T08:13:35;21.13;;;19.13;;
72109;SDS011;59983;52.010;5.420;2022-12-18T08:16:03;22.40;;;19.95;;
72109;SDS011;59983;52.010;5.420;2022-12-18T08:18:32;23.17;;;20.60;;
72109;SDS011;59983;52.010;5.420;2022-12-18T08:21:13;21.83;;;19.67;;
72109;SDS011;59983;52.010;5.420;2022-12-18T08:23:42;19.90;;;17.80;;
72109;SDS011;59983;52.010;5.420;2022-12-18T08:26:09;23.25;;;20.67;;
72109;SDS011;59983;52.010;5.420;2022-12-18T08:28:37;23.92;;;21.08;;
72109;SDS011;59983;52.010;5.420;2022-12-18T08:31:05;30.77;;;24.07;;
72109;SDS011;59983;52.010;5.420;2022-12-18T08:33:32;27.77;;;23.73;;
72109;SDS011;59983;52.010;5.420;2022-12-18T08:35:59;24.88;;;19.92;;
72109;SDS011;59983;52.010;5.420;2022-12-18T08:38:26;27.35;;;20.70;;
72109;SDS011;59983;52.010;5.420;2022-12-18T08:41:00;21.17;;;19.17;;
72109;SDS011;59983;52.010;5.420;2022-12-18T08:43:27;21.90;;;19.70;;
72109;SDS011;59983;52.010;5.420;2022-12-18T08:46:12;26.65;;;20.33;;
72109;SDS011;59983;52.010;5.420;2022-12-18T08:48:39;22.67;;;20.30;;
72109;SDS011;59983;52.010;5.420;2022-12-18T08:51:06;28.00;;;20.55;;
72109;SDS011;59983;52.010;5.420;2022-12-18T08:53:32;27.83;;;19.83;;
72109;SDS011;59983;52.010;5.420;2022-12-18T08:56:01;30.00;;;21.83;;
72109;SDS011;59983;52.010;5.420;2022-12-18T08:58:27;25.55;;;21.48;;
72109;SDS011;59983;52.010;5.420;2022-12-18T09:00:58;26.00;;;21.08;;
72109;SDS011;59983;52.010;5.420;2022-12-18T09:03:26;23.50;;;21.00;;
72109;SDS011;59983;52.010;5.420;2022-12-18T09:05:52;23.25;;;20.98;;
72109;SDS011;59983;52.010;5.420;2022-12-18T09:08:19;25.93;;;23.23;;
72109;SDS011;59983;52.010;5.420;2022-12-18T09:10:47;23.75;;;21.20;;
72109;SDS011;59983;52.010;5.420;2022-12-18T09:13:14;24.52;;;22.00;;
72109;SDS011;59983;52.010;5.420;2022-12-18T09:15:42;25.92;;;19.63;;
72109;SDS011;59983;52.010;5.420;2022-12-18T09:18:11;21.83;;;19.83;;
72109;SDS011;59983;52.010;5.420;2022-12-18T09:20:39;43.10;;;28.30;;
72109;SDS011;59983;52.010;5.420;2022-12-18T09:23:06;32.08;;;22.50;;
72109;SDS011;59983;52.010;5.420;2022-12-18T09:25:33;23.48;;;21.05;;
72109;SDS011;59983;52.010;5.420;2022-12-18T09:28:02;21.35;;;19.02;;
72109;SDS011;59983;52.010;5.420;2022-12-18T09:30:30;20.35;;;18.45;;
72109;SDS011;59983;52.010;5.420;2022-12-18T09:33:00;20.20;;;18.10;;
72109;SDS011;59983;52.010;5.420;2022-12-18T09:35:27;24.52;;;17.30;;
72109;SDS011;59983;52.010;5.420;2022-12-18T09:37:53;21.77;;;19.85;;
72109;SDS011;59983;52.010;5.420;2022-12-18T09:40:22;21.75;;;18.42;;
72109;SDS011;59983;52.010;5.420;2022-12-18T09:42:56;23.42;;;21.00;;
72109;SDS011;59983;52.010;5.420;2022-12-18T09:45:26;21.77;;;19.67;;
72109;SDS011;59983;52.010;5.420;2022-12-18T09:47:56;20.02;;;17.42;;
72109;SDS011;59983;52.010;5.420;2022-12-18T09:50:27;21.67;;;19.23;;
72109;SDS011;59983;52.010;5.420;2022-12-18T09:52:59;20.58;;;18.30;;
72109;SDS011;59983;52.010;5.420;2022-12-18T09:55:36;19.70;;;17.83;;
72109;SDS011;59983;52.010;5.420;2022-12-18T10:00:42;18.98;;;16.95;;
72109;SDS011;59983;52.010;5.420;2022-12-18T10:03:11;22.30;;;20.33;;
72109;SDS011;59983;52.010;5.420;2022-12-18T10:14:20;20.30;;;18.17;;
72109;SDS011;59983;52.010;5.420;2022-12-18T10:19:45;22.45;;;17.52;;
72109;SDS011;59983;52.010;5.420;2022-12-18T10:27:40;19.58;;;17.45;;
72109;SDS011;59983;52.010;5.420;2022-12-18T10:30:17;18.75;;;16.83;;
72109;SDS011;59983;52.010;5.420;2022-12-18T10:32:47;20.92;;;16.85;;
72109;SDS011;59983;52.010;5.420;2022-12-18T10:37:58;22.60;;;17.77;;
72109;SDS011;59983;52.010;5.420;2022-12-18T10:40:25;20.42;;;18.30;;
72109;SDS011;59983;52.010;5.420;2022-12-18T10:43:12;21.23;;;19.05;;
72109;SDS011;59983;52.010;5.420;2022-12-18T10:45:41;19.48;;;16.42;;
72109;SDS011;59983;52.010;5.420;2022-12-18T10:48:18;20.95;;;18.35;;
72109;SDS011;59983;52.010;5.420;2022-12-18T10:50:47;19.27;;;15.20;;
72109;SDS011;59983;52.010;5.420;2022-12-18T10:53:36;23.85;;;17.70;;
72109;SDS011;59983;52.010;5.420;2022-12-18T10:56:04;19.77;;;17.88;;
72109;SDS011;59983;52.010;5.420;2022-12-18T10:58:33;22.38;;;18.20;;
72109;SDS011;59983;52.010;5.420;2022-12-18T11:03:40;24.30;;;18.47;;
72109;SDS011;59983;52.010;5.420;2022-12-18T11:09:18;22.17;;;18.40;;
72109;SDS011;59983;52.010;5.420;2022-12-18T11:11:50;18.63;;;16.70;;
72109;SDS011;59983;52.010;5.420;2022-12-18T11:14:29;22.92;;;19.85;;
72109;SDS011;59983;52.010;5.420;2022-12-18T11:16:58;19.53;;;17.00;;
72109;SDS011;59983;52.010;5.420;2022-12-18T11:19:52;24.90;;;19.98;;
72109;SDS011;59983;52.010;5.420;2022-12-18T11:22:30;23.33;;;19.45;;
72109;SDS011;59983;52.010;5.420;2022-12-18T11:27:47;23.85;;;19.77;;
72109;SDS011;59983;52.010;5.420;2022-12-18T11:32:46;22.23;;;17.60;;
72109;SDS011;59983;52.010;5.420;2022-12-18T11:35:18;32.35;;;21.20;;
72109;SDS011;59983;52.010;5.420;2022-12-18T11:37:49;19.00;;;16.75;;
72109;SDS011;59983;52.010;5.420;2022-12-18T11:40:30;23.42;;;17.63;;
72109;SDS011;59983;52.010;5.420;2022-12-18T11:46:05;24.95;;;17.20;;
72109;SDS011;59983;52.010;5.420;2022-12-18T11:49:28;25.55;;;18.90;;
72109;SDS011;59983;52.010;5.420;2022-12-18T11:54:20;21.58;;;18.02;;
72109;SDS011;59983;52.010;5.420;2022-12-18T11:59:51;23.25;;;16.58;;
72109;SDS011;59983;52.010;5.420;2022-12-18T12:02:43;26.63;;;18.50;;
72109;SDS011;59983;52.010;5.420;2022-12-18T12:10:59;24.83;;;17.73;;
72109;SDS011;59983;52.010;5.420;2022-12-18T12:13:50;21.45;;;17.67;;
72109;SDS011;59983;52.010;5.420;2022-12-18T12:21:58;18.13;;;16.15;;
72109;SDS011;59983;52.010;5.420;2022-12-18T12:27:49;22.40;;;16.70;;
72109;SDS011;59983;52.010;5.420;2022-12-18T12:30:20;22.98;;;17.92;;
72109;SDS011;59983;52.010;5.420;2022-12-18T12:38:29;19.40;;;16.03;;
72109;SDS011;59983;52.010;5.420;2022-12-18T12:41:01;19.80;;;17.17;;
72109;SDS011;59983;52.010;5.420;2022-12-18T12:43:47;22.15;;;18.35;;
72109;SDS011;59983;52.010;5.420;2022-12-18T12:46:36;21.48;;;16.67;;
72109;SDS011;59983;52.010;5.420;2022-12-18T12:49:11;19.70;;;17.75;;
72109;SDS011;59983;52.010;5.420;2022-12-18T12:51:43;18.37;;;15.63;;
72109;SDS011;59983;52.010;5.420;2022-12-18T12:54:15;20.05;;;16.77;;
72109;SDS011;59983;52.010;5.420;2022-12-18T13:02:37;19.45;;;17.38;;
72109;SDS011;59983;52.010;5.420;2022-12-18T13:18:16;19.50;;;17.43;;
72109;SDS011;59983;52.010;5.420;2022-12-18T13:20:46;18.20;;;15.65;;
72109;SDS011;59983;52.010;5.420;2022-12-18T13:31:00;22.67;;;17.30;;
72109;SDS011;59983;52.010;5.420;2022-12-18T13:36:29;24.17;;;18.73;;
72109;SDS011;59983;52.010;5.420;2022-12-18T13:39:22;31.45;;;23.48;;
72109;SDS011;59983;52.010;5.420;2022-12-18T13:44:33;23.93;;;17.23;;
72109;SDS011;59983;52.010;5.420;2022-12-18T13:47:25;44.70;;;30.92;;
72109;SDS011;59983;52.010;5.420;2022-12-18T13:49:54;21.48;;;18.40;;
72109;SDS011;59983;52.010;5.420;2022-12-18T13:52:22;27.90;;;20.10;;
72109;SDS011;59983;52.010;5.420;2022-12-18T13:54:52;25.63;;;19.77;;
72109;SDS011;59983;52.010;5.420;2022-12-18T13:57:35;54.57;;;28.87;;
72109;SDS011;59983;52.010;5.420;2022-12-18T14:02:49;46.13;;;28.08;;
72109;SDS011;59983;52.010;5.420;2022-12-18T14:08:01;29.30;;;21.48;;
72109;SDS011;59983;52.010;5.420;2022-12-18T14:10:34;46.17;;;24.90;;
72109;SDS011;59983;52.010;5.420;2022-12-18T14:13:36;23.90;;;18.50;;
72109;SDS011;59983;52.010;5.420;2022-12-18T14:16:06;55.67;;;27.98;;
72109;SDS011;59983;52.010;5.420;2022-12-18T14:18:52;31.80;;;21.17;;
72109;SDS011;59983;52.010;5.420;2022-12-18T14:21:40;23.95;;;20.25;;
72109;SDS011;59983;52.010;5.420;2022-12-18T14:24:19;20.67;;;18.23;;
72109;SDS011;59983;52.010;5.420;2022-12-18T14:26:48;21.73;;;17.27;;
72109;SDS011;59983;52.010;5.420;2022-12-18T14:29:23;28.65;;;19.70;;
72109;SDS011;59983;52.010;5.420;2022-12-18T14:32:13;17.85;;;15.05;;
72109;SDS011;59983;52.010;5.420;2022-12-18T14:34:48;21.88;;;18.00;;
72109;SDS011;59983;52.010;5.420;2022-12-18T14:37:17;23.13;;;16.33;;
72109;SDS011;59983;52.010;5.420;2022-12-18T14:39:54;19.40;;;17.30;;
72109;SDS011;59983;52.010;5.420;2022-12-18T14:42:23;20.67;;;18.48;;
72109;SDS011;59983;52.010;5.420;2022-12-18T14:48:07;20.90;;;18.55;;
72109;SDS011;59983;52.010;5.420;2022-12-18T14:50:36;20.00;;;18.07;;
72109;SDS011;59983;52.010;5.420;2022-12-18T14:53:03;20.70;;;17.65;;
72109;SDS011;59983;52.010;5.420;2022-12-18T14:55:34;21.05;;;18.83;;
72109;SDS011;59983;52.010;5.420;2022-12-18T14:58:00;20.60;;;16.33;;
72109;SDS011;59983;52.010;5.420;2022-12-18T15:00:27;26.75;;;18.30;;
72109;SDS011;59983;52.010;5.420;2022-12-18T15:02:54;20.13;;;18.03;;
72109;SDS011;59983;52.010;5.420;2022-12-18T15:05:27;24.65;;;18.65;;
72109;SDS011;59983;52.010;5.420;2022-12-18T15:07:57;23.98;;;20.60;;
72109;SDS011;59983;52.010;5.420;2022-12-18T15:10:29;26.00;;;19.75;;
72109;SDS011;59983;52.010;5.420;2022-12-18T15:20:41;22.67;;;19.50;;
72109;SDS011;59983;52.010;5.420;2022-12-18T15:23:17;22.08;;;17.77;;
72109;SDS011;59983;52.010;5.420;2022-12-18T15:25:47;20.60;;;18.33;;
72109;SDS011;59983;52.010;5.420;2022-12-18T15:28:25;20.80;;;18.53;;
72109;SDS011;59983;52.010;5.420;2022-12-18T15:33:36;25.48;;;19.67;;
72109;SDS011;59983;52.010;5.420;2022-12-18T15:36:09;19.65;;;17.63;;
72109;SDS011;59983;52.010;5.420;2022-12-18T15:38:37;24.95;;;20.13;;
72109;SDS011;59983;52.010;5.420;2022-12-18T15:41:22;25.63;;;18.70;;
72109;SDS011;59983;52.010;5.420;2022-12-18T15:43:50;21.80;;;19.00;;
72109;SDS011;59983;52.010;5.420;2022-12-18T15:46:19;22.30;;;18.75;;
72109;SDS011;59983;52.010;5.420;2022-12-18T15:48:48;21.80;;;19.25;;
72109;SDS011;59983;52.010;5.420;2022-12-18T15:53:48;22.87;;;19.93;;
72109;SDS011;59983;52.010;5.420;2022-12-18T15:56:17;29.42;;;18.17;;
72109;SDS011;59983;52.010;5.420;2022-12-18T15:59:04;21.42;;;19.05;;
72109;SDS011;59983;52.010;5.420;2022-12-18T16:01:38;25.30;;;21.00;;
72109;SDS011;59983;52.010;5.420;2022-12-18T16:04:09;23.17;;;19.33;;
72109;SDS011;59983;52.010;5.420;2022-12-18T16:06:38;21.70;;;17.93;;
72109;SDS011;59983;52.010;5.420;2022-12-18T16:09:24;22.95;;;17.45;;
72109;SDS011;59983;52.010;5.420;2022-12-18T16:11:51;24.65;;;18.27;;
72109;SDS011;59983;52.010;5.420;2022-12-18T16:14:22;23.83;;;19.10;;
72109;SDS011;59983;52.010;5.420;2022-12-18T16:16:55;22.35;;;18.42;;
72109;SDS011;59983;52.010;5.420;2022-12-18T16:19:23;23.07;;;17.80;;
72109;SDS011;59983;52.010;5.420;2022-12-18T16:21:51;20.17;;;17.55;;
72109;SDS011;59983;52.010;5.420;2022-12-18T16:24:20;23.10;;;19.48;;
72109;SDS011;59983;52.010;5.420;2022-12-18T16:26:51;26.60;;;18.42;;
72109;SDS011;59983;52.010;5.420;2022-12-18T16:29:19;27.38;;;19.08;;
72109;SDS011;59983;52.010;5.420;2022-12-18T16:31:53;20.60;;;18.50;;
72109;SDS011;59983;52.010;5.420;2022-12-18T16:34:25;20.40;;;17.83;;
72109;SDS011;59983;52.010;5.420;2022-12-18T16:37:01;24.13;;;20.25;;
72109;SDS011;59983;52.010;5.420;2022-12-18T16:39:31;23.75;;;18.58;;
72109;SDS011;59983;52.010;5.420;2022-12-18T16:42:04;24.27;;;20.10;;
72109;SDS011;59983;52.010;5.420;2022-12-18T16:44:34;27.83;;;18.83;;
72109;SDS011;59983;52.010;5.420;2022-12-18T16:47:02;28.90;;;21.15;;
72109;SDS011;59983;52.010;5.420;2022-12-18T16:49:30;27.40;;;20.52;;
72109;SDS011;59983;52.010;5.420;2022-12-18T16:51:56;26.38;;;19.58;;
72109;SDS011;59983;52.010;5.420;2022-12-18T16:54:23;23.30;;;19.40;;
72109;SDS011;59983;52.010;5.420;2022-12-18T16:56:50;21.97;;;18.03;;
72109;SDS011;59983;52.010;5.420;2022-12-18T16:59:17;24.08;;;19.00;;
72109;SDS011;59983;52.010;5.420;2022-12-18T17:01:45;37.13;;;22.58;;
72109;SDS011;59983;52.010;5.420;2022-12-18T17:04:12;27.58;;;20.63;;